createdAt,value
2022-07-29T00:02:50.265Z,45.08
2022-07-29T00:06:52.376Z,45.29
2022-07-29T00:10:54.051Z,45.90
2022-07-29T00:14:56.712Z,45.85
2022-07-29T00:19:01.867Z,46.29
2022-07-29T00:23:04.270Z,46.93
2022-07-29T00:27:06.057Z,47.32
2022-07-29T00:31:09.090Z,48.22
2022-07-29T00:35:29.586Z,47.92
2022-07-29T00:39:31.479Z,47.18
2022-07-29T00:43:33.298Z,47.40
2022-07-29T00:47:34.903Z,48.10
2022-07-29T00:51:37.920Z,48.65
2022-07-29T00:55:39.792Z,48.38
2022-07-29T00:59:41.497Z,48.05
2022-07-29T01:03:43.175Z,47.38
2022-07-29T01:07:46.711Z,47.25
2022-07-29T01:11:49.474Z,46.61
2022-07-29T01:15:55.649Z,46.93
2022-07-29T01:20:07.085Z,46.77
2022-07-29T01:24:17.534Z,46.63
2022-07-29T01:28:45.911Z,46.83
2022-07-29T01:32:55.535Z,46.56
2022-07-29T01:37:12.080Z,46.41
2022-07-29T01:41:21.548Z,46.27
2022-07-29T01:45:34.952Z,47.37
2022-07-29T01:49:41.081Z,47.01
2022-07-29T01:53:56.054Z,46.87
2022-07-29T01:57:59.934Z,46.95
2022-07-29T02:02:02.600Z,47.03
2022-07-29T02:06:07.105Z,46.80
2022-07-29T02:10:11.601Z,47.13
2022-07-29T02:14:15.725Z,47.35
2022-07-29T02:18:19.429Z,47.37
2022-07-29T02:22:22.144Z,47.06
2022-07-29T02:26:27.179Z,46.86
2022-07-29T02:30:31.406Z,46.40
2022-07-29T02:34:35.429Z,46.28
2022-07-29T02:38:53.711Z,46.35
2022-07-29T02:42:55.978Z,45.72
2022-07-29T02:47:31.576Z,45.65
2022-07-29T02:51:52.118Z,45.70
2022-07-29T02:56:00.147Z,45.82
2022-07-29T03:00:08.162Z,45.94
2022-07-29T03:04:12.755Z,45.95
2022-07-29T03:08:16.804Z,46.05
2022-07-29T03:12:19.209Z,45.99
2022-07-29T03:16:22.029Z,46.20
2022-07-29T03:20:23.798Z,46.49
2022-07-29T03:24:29.745Z,46.33
2022-07-29T03:28:32.605Z,46.69
2022-07-29T03:32:34.688Z,46.89
2022-07-29T03:36:36.395Z,47.24
2022-07-29T03:40:49.825Z,47.18
2022-07-29T03:44:53.686Z,47.09
2022-07-29T03:49:01.015Z,47.18
2022-07-29T03:53:04.165Z,47.14
2022-07-29T03:57:07.075Z,46.82
2022-07-29T04:01:08.979Z,47.01
2022-07-29T04:05:14.421Z,47.18
2022-07-29T04:09:18.173Z,46.91
2022-07-29T04:13:21.206Z,46.91
2022-07-29T04:17:23.553Z,46.81
2022-07-29T04:21:25.691Z,46.90
2022-07-29T04:25:27.470Z,46.86
2022-07-29T04:29:29.127Z,46.72
2022-07-29T04:33:30.728Z,46.64
2022-07-29T04:37:32.482Z,46.68
2022-07-29T04:41:34.653Z,46.26
2022-07-29T04:45:36.830Z,46.31
2022-07-29T04:49:39.685Z,46.25
2022-07-29T04:53:41.228Z,46.71
2022-07-29T04:57:42.891Z,46.11
2022-07-29T05:01:44.567Z,46.66
2022-07-29T05:05:46.336Z,46.38
2022-07-29T05:09:48.075Z,46.52
2022-07-29T05:13:49.730Z,46.70
2022-07-29T05:17:51.350Z,46.96
2022-07-29T05:21:52.971Z,46.52
2022-07-29T05:25:54.567Z,47.01
2022-07-29T05:29:56.162Z,47.08
2022-07-29T05:33:57.853Z,46.80
2022-07-29T05:37:59.414Z,46.78
2022-07-29T05:42:01.029Z,47.09
2022-07-29T05:46:02.783Z,46.70
2022-07-29T05:50:05.521Z,46.27
2022-07-29T05:54:07.200Z,46.06
2022-07-29T05:58:08.789Z,46.28
2022-07-29T06:02:10.549Z,45.87
2022-07-29T06:06:12.405Z,45.85
2022-07-29T06:10:14.339Z,45.71
2022-07-29T06:14:16.329Z,45.92
2022-07-29T06:18:18.509Z,45.75
2022-07-29T06:22:20.158Z,45.74
2022-07-29T06:26:31.007Z,44.82
2022-07-29T06:30:34.237Z,44.72
2022-07-29T06:34:36.891Z,44.28
2022-07-29T06:38:42.092Z,43.62
2022-07-29T06:42:47.184Z,43.30
2022-07-29T06:46:51.105Z,43.17
2022-07-29T06:50:52.703Z,42.87
2022-07-29T06:54:56.056Z,42.46
2022-07-29T06:58:57.696Z,42.33
2022-07-29T07:02:59.289Z,42.20
2022-07-29T07:07:00.951Z,42.37
2022-07-29T07:11:02.748Z,41.99
2022-07-29T07:15:04.880Z,41.84
2022-07-29T07:19:06.545Z,41.95
2022-07-29T07:23:08.352Z,41.61
2022-07-29T07:27:10.044Z,41.73
2022-07-29T07:31:13.126Z,41.51
2022-07-29T07:35:15.425Z,41.43
2022-07-29T07:39:17.243Z,41.10
2022-07-29T07:43:20.074Z,41.50
2022-07-29T07:47:24.521Z,41.39
2022-07-29T07:51:30.184Z,41.30
2022-07-29T07:55:47.489Z,41.34
2022-07-29T07:59:54.272Z,41.23
2022-07-29T08:03:56.055Z,40.76
2022-07-29T08:07:57.773Z,40.90
2022-07-29T08:12:00.490Z,40.83
2022-07-29T08:16:04.321Z,40.14
2022-07-29T08:20:08.118Z,40.19
2022-07-29T08:24:29.846Z,40.69
2022-07-29T08:28:31.866Z,40.09
2022-07-29T08:32:52.507Z,40.06
2022-07-29T08:36:56.696Z,39.99
2022-07-29T08:40:59.468Z,40.05
2022-07-29T08:45:01.350Z,40.26
2022-07-29T08:49:03.169Z,40.75
2022-07-29T08:53:06.015Z,40.43
2022-07-29T08:57:07.722Z,39.52
2022-07-29T09:01:13.914Z,39.43
2022-07-29T09:05:16.849Z,38.90
2022-07-29T09:09:18.778Z,39.38
2022-07-29T09:13:20.424Z,39.95
2022-07-29T09:17:53.025Z,39.15
2022-07-29T09:22:03.059Z,39.59
2022-07-29T09:26:09.588Z,39.92
2022-07-29T09:30:15.266Z,39.75
2022-07-29T09:34:30.733Z,39.69
2022-07-29T09:38:33.631Z,39.91
2022-07-29T09:42:35.348Z,39.11
2022-07-29T09:46:37.277Z,38.72
2022-07-29T09:50:43.310Z,38.25
2022-07-29T09:54:45.941Z,38.22
2022-07-29T09:58:47.709Z,38.21
2022-07-29T10:02:49.738Z,37.93
2022-07-29T10:07:05.274Z,37.98
2022-07-29T10:11:15.704Z,37.92
2022-07-29T10:15:17.498Z,37.94
2022-07-29T10:19:19.487Z,37.11
2022-07-29T10:23:21.488Z,37.06
2022-07-29T10:27:23.186Z,36.47
2022-07-29T10:31:37.801Z,36.28
2022-07-29T10:35:39.668Z,36.18
2022-07-29T10:40:23.667Z,36.25
2022-07-29T10:44:26.785Z,35.99
2022-07-29T10:48:28.533Z,35.74
2022-07-29T10:52:51.596Z,35.42
2022-07-29T10:56:53.305Z,35.94
2022-07-29T11:00:57.580Z,35.78
2022-07-29T11:05:01.371Z,35.31
2022-07-29T11:09:25.589Z,34.62
2022-07-29T11:13:49.397Z,33.77
2022-07-29T11:17:54.475Z,33.66
2022-07-29T11:21:58.533Z,33.37
2022-07-29T11:26:23.085Z,32.90
2022-07-29T11:30:52.207Z,32.05
2022-07-29T11:35:17.208Z,31.88
2022-07-29T11:39:27.062Z,31.73
2022-07-29T11:43:53.541Z,31.96
2022-07-29T11:48:05.249Z,33.18
2022-07-29T11:52:08.203Z,33.17
2022-07-29T11:56:17.044Z,32.08
2022-07-29T12:00:23.545Z,31.41
2022-07-29T12:04:27.632Z,30.82
2022-07-29T12:08:30.539Z,30.48
2022-07-29T12:12:32.274Z,29.77
2022-07-29T12:16:38.344Z,29.14
2022-07-29T12:20:40.392Z,28.00
2022-07-29T12:24:45.704Z,27.21
2022-07-29T12:28:52.796Z,26.92
2022-07-29T12:32:56.569Z,26.13
2022-07-29T12:36:58.545Z,25.24
2022-07-29T12:41:00.450Z,24.89
2022-07-29T12:45:02.593Z,23.47
2022-07-29T12:49:04.747Z,23.65
2022-07-29T12:53:12.651Z,23.04
2022-07-29T12:57:20.082Z,23.11
2022-07-29T13:01:22.598Z,22.55
2022-07-29T13:05:25.320Z,22.16
2022-07-29T13:09:41.410Z,21.58
2022-07-29T13:14:06.626Z,20.62
2022-07-29T13:18:32.380Z,20.57
2022-07-29T13:22:34.031Z,20.60
2022-07-29T13:26:35.941Z,20.93
2022-07-29T13:30:37.831Z,22.82
2022-07-29T13:34:46.430Z,23.76
2022-07-29T13:38:48.336Z,23.39
2022-07-29T13:42:50.071Z,22.77
2022-07-29T13:46:51.923Z,22.69
2022-07-29T13:50:53.726Z,22.91
2022-07-29T13:54:55.390Z,23.96
2022-07-29T13:58:58.174Z,24.96
2022-07-29T14:02:59.824Z,25.58
2022-07-29T14:07:03.578Z,26.44
2022-07-29T14:11:05.650Z,27.71
2022-07-29T14:15:07.582Z,28.39
2022-07-29T14:19:09.216Z,28.71
2022-07-29T14:23:10.870Z,28.90
2022-07-29T14:27:14.807Z,29.78
2022-07-29T14:31:17.053Z,30.76
2022-07-29T14:35:18.942Z,31.85
2022-07-29T14:39:21.096Z,31.65
2022-07-29T14:43:22.757Z,31.72
2022-07-29T14:47:24.785Z,32.19
2022-07-29T14:51:32.429Z,32.85
2022-07-29T14:55:34.296Z,32.70
2022-07-29T14:59:37.307Z,32.40
2022-07-29T15:03:38.965Z,32.68
2022-07-29T15:07:40.940Z,32.00
2022-07-29T15:11:42.734Z,31.96
2022-07-29T15:15:47.081Z,31.05
2022-07-29T15:19:48.871Z,30.08
2022-07-29T15:23:50.605Z,29.08
2022-07-29T15:27:53.990Z,28.18
2022-07-29T15:31:57.700Z,27.65
2022-07-29T15:35:59.701Z,27.93
2022-07-29T15:40:01.467Z,27.93
2022-07-29T15:44:03.037Z,28.22
2022-07-29T15:48:07.574Z,28.33
2022-07-29T15:52:10.594Z,29.13
2022-07-29T15:56:14.265Z,29.91
2022-07-29T16:00:17.882Z,29.56
2022-07-29T16:04:20.037Z,29.91
2022-07-29T16:08:21.692Z,30.68
2022-07-29T16:12:23.354Z,30.72
2022-07-29T16:16:25.129Z,30.71
2022-07-29T16:20:27.068Z,30.47
2022-07-29T16:24:29.818Z,31.71
2022-07-29T16:28:31.695Z,33.61
2022-07-29T16:32:33.605Z,35.03
2022-07-29T16:36:35.297Z,36.66
2022-07-29T16:40:36.985Z,37.43
2022-07-29T16:44:38.752Z,37.34
2022-07-29T16:48:40.779Z,38.73
2022-07-29T16:52:43.150Z,39.11
2022-07-29T16:56:44.831Z,39.53
2022-07-29T17:00:46.494Z,39.75
2022-07-29T17:04:48.463Z,39.97
2022-07-29T17:08:50.196Z,40.02
2022-07-29T17:12:52.079Z,40.64
2022-07-29T17:17:01.298Z,40.14
2022-07-29T17:21:03.803Z,40.04
2022-07-29T17:25:06.481Z,39.76
2022-07-29T17:29:08.159Z,40.51
2022-07-29T17:33:09.809Z,41.03
2022-07-29T17:37:12.300Z,41.53
2022-07-29T17:41:13.906Z,42.00
2022-07-29T17:45:15.545Z,42.57
2022-07-29T17:49:17.473Z,44.28
2022-07-29T17:53:19.312Z,43.47
2022-07-29T17:57:20.961Z,43.60
2022-07-29T18:01:22.631Z,43.81
2022-07-29T18:05:24.355Z,44.24
2022-07-29T18:09:27.091Z,44.62
2022-07-29T18:13:28.851Z,45.50
2022-07-29T18:17:52.861Z,46.16
2022-07-29T18:21:55.225Z,48.07
2022-07-29T18:25:58.509Z,47.60
2022-07-29T18:30:00.214Z,48.28
2022-07-29T18:34:06.636Z,47.83
2022-07-29T18:38:08.332Z,48.61
2022-07-29T18:42:09.966Z,48.52
2022-07-29T18:46:11.699Z,48.92
2022-07-29T18:50:16.784Z,50.80
2022-07-29T18:54:19.129Z,50.92
2022-07-29T18:58:37.399Z,51.28
2022-07-29T19:02:40.218Z,51.76
2022-07-29T19:06:44.466Z,53.07
2022-07-29T19:10:46.634Z,53.48
2022-07-29T19:14:48.293Z,54.75
2022-07-29T19:18:51.873Z,54.51
2022-07-29T19:22:53.517Z,55.98
2022-07-29T19:26:56.522Z,56.38
2022-07-29T19:30:58.919Z,58.63
2022-07-29T19:35:19.565Z,57.68
2022-07-29T19:39:35.285Z,60.03
2022-07-29T19:43:49.976Z,59.04
2022-07-29T19:48:01.064Z,58.74
2022-07-29T19:52:03.486Z,59.01
2022-07-29T21:17:47.255Z,66.64
2022-07-29T21:21:48.843Z,67.30
2022-07-29T21:25:50.418Z,68.34
2022-07-29T21:29:51.990Z,70.32
2022-07-29T21:33:54.179Z,72.21
2022-07-29T21:37:55.836Z,72.33
2022-07-29T21:41:57.524Z,73.32
2022-07-29T21:46:00.299Z,75.69
2022-07-29T21:50:01.990Z,77.83
2022-07-29T21:54:04.215Z,76.36
2022-07-29T21:58:06.241Z,85.10
2022-07-29T22:02:08.029Z,84.89
2022-07-29T22:06:11.328Z,82.36
2022-07-29T22:10:20.515Z,83.19
2022-07-29T22:14:22.327Z,84.15
2022-07-29T22:18:23.948Z,82.58
2022-07-29T22:22:25.634Z,82.67
2022-07-29T22:26:27.360Z,83.17
2022-07-29T22:30:29.019Z,81.92
2022-07-29T22:34:31.758Z,82.39
2022-07-29T22:38:39.526Z,82.28
2022-07-29T22:42:43.914Z,84.57
2022-07-29T22:46:45.744Z,83.65
2022-07-29T22:50:47.329Z,84.14
2022-07-29T22:54:48.959Z,83.70
2022-07-29T22:58:50.894Z,83.35
2022-07-29T23:02:52.467Z,82.83
2022-07-29T23:06:54.055Z,83.03
2022-07-29T23:10:55.678Z,83.40
2022-07-29T23:14:57.250Z,82.72
2022-07-29T23:18:58.834Z,82.99
2022-07-29T23:23:00.642Z,83.23
2022-07-29T23:27:02.675Z,83.45
2022-07-29T23:31:04.558Z,84.15
2022-07-29T23:35:07.164Z,84.42
2022-07-29T23:39:11.395Z,86.01
2022-07-29T23:43:13.002Z,86.11
2022-07-29T23:47:14.564Z,87.01
2022-07-29T23:51:16.241Z,87.37
2022-07-29T23:55:37.253Z,87.82
2022-07-29T23:59:40.257Z,87.84
